Time;durP1;ratioP1;P1;durP2;ratioP2;P2;SDS_P1;SDS_P2;PMS_P1;PMS_P2;Temp;Humidity;BMP_temperature;BMP_pressure;BME280_temperature;BME280_humidity;BME280_pressure;Samples;Min_cycle;Max_cycle;Signal;HPM_P1;HPM_P2
2021/11/17 02:26:45;;;;;;;26.08;15.95;;;;;;;;;;5054150;28;20228;-78
2021/11/17 02:29:26;;;;;;;30.43;14.73;;;;;;;;;;5053547;28;20206;-80
2021/11/17 02:32:14;;;;;;;21.20;14.80;;;;;;;;;;5053972;28;20441;-82
2021/11/17 02:34:59;;;;;;;23.52;15.07;;;;;;;;;;5053903;28;20520;-82
2021/11/17 02:37:44;;;;;;;22.75;13.95;;;;;;;;;;5053740;28;20201;-80
2021/11/17 02:40:18;;;;;;;20.67;13.48;;;;;;;;;;5053308;28;20193;-82
2021/11/17 02:42:47;;;;;;;23.08;13.90;;;;;;;;;;5052515;28;20654;-82
2021/11/17 02:45:25;;;;;;;23.55;15.18;;;;;;;;;;5053508;28;20255;-80
2021/11/17 02:48:00;;;;;;;21.02;14.02;;;;;;;;;;5053691;28;20209;-82
2021/11/17 02:50:32;;;;;;;21.48;14.00;;;;;;;;;;5052207;28;20231;-78
2021/11/17 02:53:22;;;;;;;25.17;14.38;;;;;;;;;;5053532;28;20699;-80
2021/11/17 02:55:52;;;;;;;20.35;13.48;;;;;;;;;;5050523;28;20228;-82
2021/11/17 02:58:36;;;;;;;20.75;13.68;;;;;;;;;;5053663;28;20219;-82
2021/11/17 03:01:05;;;;;;;24.45;13.00;;;;;;;;;;5052973;28;20266;-82
2021/11/17 03:03:31;;;;;;;21.08;14.02;;;;;;;;;;5053105;28;20172;-80
2021/11/17 03:06:12;;;;;;;24.47;13.10;;;;;;;;;;5053127;28;20178;-80
2021/11/17 03:08:41;;;;;;;19.33;13.02;;;;;;;;;;5053051;28;20838;-80
2021/11/17 03:11:16;;;;;;;22.73;14.15;;;;;;;;;;5052802;28;20193;-80
2021/11/17 03:13:49;;;;;;;18.65;12.15;;;;;;;;;;5053128;28;20187;-79
2021/11/17 03:16:34;;;;;;;21.75;13.05;;;;;;;;;;5035334;28;20696;-80
2021/11/17 03:19:00;;;;;;;23.40;13.82;;;;;;;;;;5053000;28;20173;-82
2021/11/17 03:21:32;;;;;;;22.58;13.32;;;;;;;;;;5052580;28;20195;-79
2021/11/17 03:23:58;;;;;;;35.15;12.27;;;;;;;;;;5051820;28;20206;-83
2021/11/17 03:26:30;;;;;;;19.13;12.07;;;;;;;;;;5052936;28;20175;-80
2021/11/17 03:28:59;;;;;;;18.45;10.88;;;;;;;;;;5052955;28;20289;-80
2021/11/17 03:31:28;;;;;;;18.40;11.02;;;;;;;;;;5052461;28;20197;-79
2021/11/17 03:34:17;;;;;;;19.83;11.95;;;;;;;;;;5052847;28;20177;-80
2021/11/17 03:36:53;;;;;;;24.77;13.43;;;;;;;;;;5052218;28;20211;-80
2021/11/17 03:39:28;;;;;;;21.27;13.52;;;;;;;;;;5034716;28;20223;-82
2021/11/17 03:42:10;;;;;;;25.65;12.45;;;;;;;;;;5052627;28;20179;-80
2021/11/17 03:44:39;;;;;;;20.05;12.15;;;;;;;;;;5052802;28;20182;-79
2021/11/17 03:47:08;;;;;;;20.98;12.55;;;;;;;;;;5052689;28;20547;-82
2021/11/17 03:49:49;;;;;;;19.73;10.75;;;;;;;;;;5050972;28;20628;-77
2021/11/17 03:52:38;;;;;;;19.90;10.73;;;;;;;;;;5051398;28;20182;-79
2021/11/17 03:55:23;;;;;;;20.45;11.85;;;;;;;;;;5052697;28;20182;-79
2021/11/17 03:57:52;;;;;;;22.02;12.00;;;;;;;;;;5052436;28;20290;-82
2021/11/17 04:00:31;;;;;;;23.15;12.50;;;;;;;;;;5052158;28;20276;-81
2021/11/17 04:03:08;;;;;;;27.42;11.60;;;;;;;;;;5053170;28;20173;-81
2021/11/17 04:05:37;;;;;;;22.88;13.18;;;;;;;;;;5055551;28;20587;-79
2021/11/17 04:08:10;;;;;;;22.55;11.98;;;;;;;;;;5056188;28;20177;-82
2021/11/17 04:10:54;;;;;;;22.98;12.35;;;;;;;;;;5055926;28;20246;-79
2021/11/17 04:13:26;;;;;;;25.10;12.85;;;;;;;;;;5056354;28;20574;-81
2021/11/17 04:16:11;;;;;;;21.73;12.13;;;;;;;;;;5055155;28;20709;-82
2021/11/17 04:18:55;;;;;;;28.38;12.20;;;;;;;;;;5056326;28;20181;-82
2021/11/17 04:21:36;;;;;;;25.08;13.00;;;;;;;;;;5055736;28;20189;-80
2021/11/17 04:24:08;;;;;;;23.90;12.82;;;;;;;;;;5055993;28;20256;-78
2021/11/17 04:26:40;;;;;;;23.92;13.75;;;;;;;;;;5055972;28;20533;-81
2021/11/17 04:29:24;;;;;;;19.20;10.63;;;;;;;;;;5056015;28;20209;-80
2021/11/17 04:31:50;;;;;;;20.67;11.45;;;;;;;;;;5055928;28;20174;-82
2021/11/17 04:34:16;;;;;;;23.07;12.00;;;;;;;;;;5055810;28;20762;-83
2021/11/17 04:36:53;;;;;;;19.97;11.10;;;;;;;;;;5055653;28;20810;-80
2021/11/17 04:39:29;;;;;;;21.67;12.73;;;;;;;;;;5054270;28;20415;-80
2021/11/17 04:41:55;;;;;;;18.45;11.38;;;;;;;;;;5054558;28;20180;-82
2021/11/17 04:44:36;;;;;;;22.70;12.77;;;;;;;;;;5054212;28;20172;-82
2021/11/17 04:47:05;;;;;;;22.92;10.80;;;;;;;;;;5037808;28;20634;-80
2021/11/17 04:49:43;;;;;;;23.60;12.07;;;;;;;;;;5055495;28;20197;-80
2021/11/17 04:52:19;;;;;;;24.17;13.50;;;;;;;;;;5055779;28;20192;-80
2021/11/17 04:54:57;;;;;;;24.85;12.13;;;;;;;;;;5055416;28;20263;-80
2021/11/17 04:57:32;;;;;;;19.70;11.80;;;;;;;;;;5055601;28;20206;-81
2021/11/17 05:00:10;;;;;;;20.27;12.02;;;;;;;;;;5054987;28;20211;-82
2021/11/17 05:02:48;;;;;;;22.65;11.90;;;;;;;;;;5055379;28;20177;-80
2021/11/17 05:05:26;;;;;;;26.15;13.50;;;;;;;;;;5054185;28;20169;-81
2021/11/17 05:07:57;;;;;;;26.88;13.15;;;;;;;;;;5055437;28;20177;-81
2021/11/17 05:10:32;;;;;;;22.27;12.70;;;;;;;;;;5053520;28;20568;-80
2021/11/17 05:13:04;;;;;;;20.10;12.15;;;;;;;;;;5055291;28;20223;-82
2021/11/17 05:15:37;;;;;;;23.83;13.02;;;;;;;;;;5055093;28;20256;-82
2021/11/17 05:18:16;;;;;;;26.02;12.77;;;;;;;;;;5053732;28;20741;-79
2021/11/17 05:21:08;;;;;;;23.38;12.10;;;;;;;;;;5054745;28;20189;-80
2021/11/17 05:23:49;;;;;;;24.58;12.30;;;;;;;;;;5046748;28;20189;-79
2021/11/17 05:26:15;;;;;;;23.80;12.00;;;;;;;;;;5054902;28;20166;-83
2021/11/17 05:28:51;;;;;;;23.30;12.60;;;;;;;;;;5054856;28;20172;-81
2021/11/17 05:31:26;;;;;;;22.95;12.27;;;;;;;;;;5054512;28;20420;-79
2021/11/17 05:33:58;;;;;;;18.27;11.30;;;;;;;;;;5053704;28;20536;-82
2021/11/17 05:36:24;;;;;;;20.05;11.55;;;;;;;;;;5054648;28;20312;-82
2021/11/17 05:38:59;;;;;;;22.73;12.65;;;;;;;;;;5054420;28;20169;-81
2021/11/17 05:41:43;;;;;;;21.83;12.23;;;;;;;;;;5054170;28;20558;-82
2021/11/17 05:44:25;;;;;;;18.25;11.75;;;;;;;;;;5053409;28;20233;-80
2021/11/17 05:47:00;;;;;;;24.65;11.80;;;;;;;;;;5054323;28;20169;-79
2021/11/17 05:49:26;;;;;;;19.45;12.38;;;;;;;;;;5054070;28;20189;-82
2021/11/17 05:52:01;;;;;;;28.63;12.20;;;;;;;;;;5054391;28;20180;-80
2021/11/17 05:54:34;;;;;;;16.95;10.50;;;;;;;;;;5054362;28;20412;-80
2021/11/17 05:57:06;;;;;;;19.48;10.70;;;;;;;;;;5054153;28;20588;-80
2021/11/17 05:59:51;;;;;;;22.02;10.93;;;;;;;;;;5052472;28;20183;-82
2021/11/17 06:02:26;;;;;;;18.65;10.63;;;;;;;;;;5054218;28;20181;-80
2021/11/17 06:04:53;;;;;;;17.60;10.80;;;;;;;;;;5054129;28;20173;-83
2021/11/17 06:07:19;;;;;;;20.60;11.55;;;;;;;;;;5054058;28;20515;-81
2021/11/17 06:09:45;;;;;;;20.77;11.90;;;;;;;;;;5052646;28;20212;-82
2021/11/17 06:12:12;;;;;;;19.37;11.87;;;;;;;;;;5050332;28;20518;-80
2021/11/17 06:14:40;;;;;;;17.00;10.73;;;;;;;;;;5033904;28;20458;-81
2021/11/17 06:17:09;;;;;;;21.27;10.55;;;;;;;;;;5044820;28;20269;-82
2021/11/17 06:19:37;;;;;;;18.25;10.88;;;;;;;;;;5053503;28;20199;-80
2021/11/17 06:22:07;;;;;;;22.38;11.65;;;;;;;;;;5053312;28;20177;-82
2021/11/17 06:24:34;;;;;;;18.80;10.85;;;;;;;;;;5053652;28;20257;-81
2021/11/17 06:27:00;;;;;;;21.00;11.10;;;;;;;;;;5051572;28;20178;-80
2021/11/17 06:29:37;;;;;;;18.25;10.65;;;;;;;;;;5051393;28;20196;-79
2021/11/17 06:32:04;;;;;;;22.55;13.05;;;;;;;;;;5053014;28;20183;-81
2021/11/17 06:34:42;;;;;;;20.88;11.45;;;;;;;;;;5053671;28;20605;-79
2021/11/17 06:37:15;;;;;;;17.88;11.02;;;;;;;;;;5053293;28;20204;-81
2021/11/17 06:39:42;;;;;;;19.00;10.75;;;;;;;;;;5051797;28;20734;-80
2021/11/17 06:42:10;;;;;;;20.38;11.07;;;;;;;;;;5052260;28;20261;-79
2021/11/17 06:44:37;;;;;;;20.55;11.98;;;;;;;;;;5052156;28;20654;-78
2021/11/17 06:47:03;;;;;;;20.67;11.07;;;;;;;;;;5051858;28;20259;-81
2021/11/17 06:49:29;;;;;;;23.45;11.55;;;;;;;;;;5052890;28;20692;-80
2021/11/17 06:51:55;;;;;;;20.33;12.07;;;;;;;;;;5052436;28;20213;-81
2021/11/17 06:54:21;;;;;;;18.30;11.10;;;;;;;;;;5053542;28;20404;-79
2021/11/17 06:56:47;;;;;;;17.77;10.95;;;;;;;;;;5052201;28;20203;-80
2021/11/17 06:59:13;;;;;;;14.18;9.80;;;;;;;;;;5053137;28;20184;-79
2021/11/17 07:01:39;;;;;;;16.07;9.07;;;;;;;;;;5053320;28;20189;-79
2021/11/17 07:04:05;;;;;;;17.52;10.48;;;;;;;;;;5052161;28;20483;-78
2021/11/17 07:06:32;;;;;;;16.95;10.23;;;;;;;;;;5053310;28;20261;-81
2021/11/17 07:08:58;;;;;;;21.55;10.63;;;;;;;;;;5053226;28;20230;-79
2021/11/17 07:11:24;;;;;;;19.98;11.10;;;;;;;;;;5052517;28;20267;-79
2021/11/17 07:13:50;;;;;;;19.45;10.70;;;;;;;;;;5053135;28;20168;-80
2021/11/17 07:16:16;;;;;;;15.60;10.33;;;;;;;;;;5052811;28;20173;-81
2021/11/17 07:18:42;;;;;;;17.25;9.95;;;;;;;;;;5053070;28;20418;-80
2021/11/17 07:21:09;;;;;;;14.90;10.00;;;;;;;;;;5052807;28;20209;-79
2021/11/17 07:23:35;;;;;;;13.20;8.57;;;;;;;;;;5052934;28;20463;-81
2021/11/17 07:26:01;;;;;;;15.40;9.80;;;;;;;;;;5051785;28;20169;-77
2021/11/17 07:28:28;;;;;;;14.93;9.32;;;;;;;;;;5053000;28;20288;-79
2021/11/17 07:30:54;;;;;;;13.95;8.30;;;;;;;;;;5052547;28;20203;-79
2021/11/17 07:33:20;;;;;;;16.40;9.73;;;;;;;;;;5052896;28;20187;-81
2021/11/17 07:35:47;;;;;;;12.73;9.00;;;;;;;;;;5052827;28;20200;-78
2021/11/17 07:38:15;;;;;;;13.98;7.82;;;;;;;;;;5052154;28;20259;-82
2021/11/17 07:40:41;;;;;;;12.98;8.23;;;;;;;;;;5056607;28;20199;-79
2021/11/17 07:43:09;;;;;;;13.43;6.95;;;;;;;;;;5056950;28;20196;-82
2021/11/17 07:45:36;;;;;;;12.05;7.72;;;;;;;;;;5056618;28;20177;-79
2021/11/17 07:48:02;;;;;;;11.82;7.30;;;;;;;;;;5056684;28;20181;-80
2021/11/17 07:50:28;;;;;;;13.05;8.07;;;;;;;;;;5056404;28;20203;-78
2021/11/17 07:52:54;;;;;;;12.30;7.47;;;;;;;;;;5056664;28;20259;-80
2021/11/17 07:55:20;;;;;;;12.50;7.77;;;;;;;;;;5055670;28;20213;-79
2021/11/17 07:57:48;;;;;;;12.18;6.88;;;;;;;;;;5056763;28;20463;-78
2021/11/17 08:00:25;;;;;;;11.57;7.20;;;;;;;;;;5056280;28;20207;-82
2021/11/17 08:02:51;;;;;;;9.30;6.18;;;;;;;;;;5056551;28;20575;-79
2021/11/17 08:05:17;;;;;;;10.23;6.88;;;;;;;;;;5056694;28;20180;-80
2021/11/17 08:07:43;;;;;;;12.00;6.32;;;;;;;;;;5056389;28;20199;-78
2021/11/17 08:10:15;;;;;;;11.48;6.95;;;;;;;;;;5055904;28;20208;-79
2021/11/17 08:12:42;;;;;;;10.30;6.68;;;;;;;;;;5055025;28;20545;-82
2021/11/17 08:15:08;;;;;;;11.18;6.18;;;;;;;;;;5056368;28;20181;-78
2021/11/17 08:17:34;;;;;;;9.25;6.68;;;;;;;;;;5056423;28;20216;-78
2021/11/17 08:20:00;;;;;;;11.25;7.30;;;;;;;;;;5055725;28;20193;-78
2021/11/17 08:22:26;;;;;;;10.65;6.32;;;;;;;;;;5038602;28;20187;-80
2021/11/17 08:24:52;;;;;;;8.48;5.75;;;;;;;;;;5056247;28;20166;-79
2021/11/17 08:27:19;;;;;;;10.98;5.50;;;;;;;;;;5056113;28;20172;-81
2021/11/17 08:29:49;;;;;;;10.90;6.05;;;;;;;;;;5055626;28;20286;-79
2021/11/17 08:32:15;;;;;;;7.43;5.05;;;;;;;;;;5055856;28;20208;-80
2021/11/17 08:34:41;;;;;;;8.65;5.80;;;;;;;;;;5055906;28;20186;-81
2021/11/17 08:37:08;;;;;;;6.03;4.60;;;;;;;;;;5055812;28;20204;-81
2021/11/17 08:39:35;;;;;;;8.35;5.70;;;;;;;;;;5055325;28;20531;-80
2021/11/17 08:42:01;;;;;;;8.48;5.50;;;;;;;;;;5054467;28;20198;-81
2021/11/17 08:44:27;;;;;;;7.67;5.27;;;;;;;;;;5055670;28;20591;-80
2021/11/17 08:46:54;;;;;;;8.75;6.35;;;;;;;;;;5055553;28;20423;-82
2021/11/17 08:49:20;;;;;;;8.02;5.43;;;;;;;;;;5054599;28;20181;-81
2021/11/17 08:51:47;;;;;;;8.93;5.65;;;;;;;;;;5055497;28;20199;-80
2021/11/17 08:54:13;;;;;;;12.20;6.50;;;;;;;;;;5054164;28;20670;-79
2021/11/17 08:56:39;;;;;;;7.35;5.43;;;;;;;;;;5054271;28;20228;-79
2021/11/17 08:59:06;;;;;;;8.10;5.97;;;;;;;;;;5055452;28;20174;-81
2021/11/17 09:01:33;;;;;;;11.23;5.65;;;;;;;;;;5054377;28;20543;-78
2021/11/17 09:04:00;;;;;;;12.13;5.55;;;;;;;;;;5055352;28;20170;-81
2021/11/17 09:06:26;;;;;;;11.10;5.90;;;;;;;;;;5055288;28;20177;-80
2021/11/17 09:08:52;;;;;;;11.10;5.72;;;;;;;;;;5054262;28;20674;-80
2021/11/17 09:11:19;;;;;;;9.43;6.03;;;;;;;;;;5054846;28;20326;-81
2021/11/17 09:13:46;;;;;;;11.75;5.93;;;;;;;;;;5055324;28;20185;-78
2021/11/17 09:16:12;;;;;;;8.52;5.90;;;;;;;;;;5054881;28;20189;-80
2021/11/17 09:18:39;;;;;;;7.30;5.68;;;;;;;;;;5055108;28;20243;-79
2021/11/17 09:21:07;;;;;;;8.88;5.25;;;;;;;;;;5054657;28;20201;-80
2021/11/17 09:23:33;;;;;;;7.90;5.18;;;;;;;;;;5054942;28;20176;-80
2021/11/17 09:26:01;;;;;;;7.88;5.97;;;;;;;;;;5055216;28;20661;-79
2021/11/17 09:28:28;;;;;;;9.00;5.30;;;;;;;;;;5054884;28;20231;-81
2021/11/17 09:30:54;;;;;;;8.85;6.50;;;;;;;;;;5053326;28;20208;-81
2021/11/17 09:33:22;;;;;;;8.45;5.25;;;;;;;;;;5053661;28;20273;-78
2021/11/17 09:35:48;;;;;;;9.35;6.88;;;;;;;;;;5054748;28;20219;-78
2021/11/17 09:38:14;;;;;;;10.73;6.95;;;;;;;;;;5054659;28;20204;-78
2021/11/17 09:40:44;;;;;;;10.35;6.25;;;;;;;;;;5054005;28;20193;-80
2021/11/17 09:43:11;;;;;;;9.68;6.13;;;;;;;;;;5054940;28;20182;-80
2021/11/17 09:45:40;;;;;;;9.30;6.00;;;;;;;;;;5054531;28;20170;-80
2021/11/17 09:48:06;;;;;;;8.30;6.07;;;;;;;;;;5054617;28;20308;-77
2021/11/17 09:50:38;;;;;;;8.73;6.35;;;;;;;;;;5052699;28;20197;-78
2021/11/17 09:53:08;;;;;;;9.50;6.72;;;;;;;;;;5054603;28;20169;-78
2021/11/17 09:55:36;;;;;;;10.68;6.93;;;;;;;;;;5054619;28;20176;-80
2021/11/17 09:58:08;;;;;;;12.40;8.50;;;;;;;;;;5053122;28;20237;-78
2021/11/17 10:00:36;;;;;;;9.93;7.25;;;;;;;;;;5053343;28;20196;-82
2021/11/17 10:03:05;;;;;;;13.63;8.27;;;;;;;;;;5054076;28;20580;-78
2021/11/17 10:14:00;;;;;;;11.02;8.05;;;;;;;;;;5054357;28;20188;-79
2021/11/17 10:16:27;;;;;;;13.60;9.65;;;;;;;;;;5053839;28;20598;-78
2021/11/17 10:18:55;;;;;;;16.05;10.80;;;;;;;;;;5054156;28;20174;-78
2021/11/17 10:21:24;;;;;;;18.00;9.88;;;;;;;;;;5053613;28;20193;-80
2021/11/17 10:23:50;;;;;;;14.30;9.80;;;;;;;;;;5052781;28;20174;-79
2021/11/17 10:26:17;;;;;;;15.73;10.00;;;;;;;;;;5053917;28;20296;-80
2021/11/17 10:28:49;;;;;;;13.63;9.57;;;;;;;;;;5052733;28;20832;-78
2021/11/17 10:31:15;;;;;;;20.55;11.32;;;;;;;;;;5053605;28;20210;-81
2021/11/17 10:34:04;;;;;;;13.88;8.98;;;;;;;;;;5053726;28;20173;-79
2021/11/17 10:36:30;;;;;;;14.15;9.68;;;;;;;;;;5053658;28;20162;-79
2021/11/17 10:39:06;;;;;;;16.23;10.00;;;;;;;;;;5052221;28;20181;-82
2021/11/17 10:41:32;;;;;;;14.73;10.48;;;;;;;;;;5053510;28;20487;-79
2021/11/17 10:44:04;;;;;;;14.57;9.30;;;;;;;;;;5053774;28;20174;-79
2021/11/17 10:46:35;;;;;;;13.38;10.63;;;;;;;;;;5053523;28;20198;-81
2021/11/17 10:49:08;;;;;;;13.52;9.90;;;;;;;;;;5053394;28;20170;-80
2021/11/17 10:51:36;;;;;;;13.00;9.80;;;;;;;;;;5052147;28;20574;-80
2021/11/17 10:54:09;;;;;;;17.15;10.82;;;;;;;;;;5053554;28;20170;-81
2021/11/17 10:56:36;;;;;;;15.57;10.07;;;;;;;;;;5053303;28;20580;-81
2021/11/17 10:59:03;;;;;;;20.23;10.82;;;;;;;;;;5053218;28;20201;-82
2021/11/17 11:01:39;;;;;;;14.98;9.68;;;;;;;;;;5052905;28;20276;-81
2021/11/17 11:04:11;;;;;;;14.48;10.05;;;;;;;;;;5053623;28;20235;-83
2021/11/17 11:06:39;;;;;;;16.75;10.98;;;;;;;;;;5052293;28;20201;-79
2021/11/17 11:09:11;;;;;;;17.60;12.32;;;;;;;;;;5053037;28;20173;-79
2021/11/17 11:11:39;;;;;;;15.90;11.20;;;;;;;;;;5052007;28;20690;-78
2021/11/17 11:14:08;;;;;;;19.77;12.05;;;;;;;;;;5053053;28;20166;-78
2021/11/17 11:16:44;;;;;;;22.27;12.75;;;;;;;;;;5051579;28;20291;-81
2021/11/17 11:19:10;;;;;;;18.83;12.18;;;;;;;;;;5052990;28;20180;-80
2021/11/17 11:21:39;;;;;;;18.88;12.00;;;;;;;;;;5053020;28;20194;-80
2021/11/17 11:24:23;;;;;;;17.45;12.45;;;;;;;;;;5053031;28;20182;-82
2021/11/17 11:26:58;;;;;;;23.42;13.52;;;;;;;;;;5053010;28;20173;-81
2021/11/17 11:29:39;;;;;;;17.30;11.43;;;;;;;;;;5052616;28;20169;-81
2021/11/17 11:32:09;;;;;;;21.88;13.40;;;;;;;;;;5053425;28;20181;-80
2021/11/17 11:34:41;;;;;;;20.75;13.23;;;;;;;;;;5053280;28;20177;-79
2021/11/17 11:37:13;;;;;;;21.50;12.63;;;;;;;;;;5052988;28;20216;-81
2021/11/17 11:39:43;;;;;;;16.63;11.63;;;;;;;;;;5052764;28;20534;-79
2021/11/17 11:42:19;;;;;;;20.20;11.80;;;;;;;;;;5051788;28;20709;-81
2021/11/17 11:44:47;;;;;;;21.10;12.00;;;;;;;;;;5053149;28;20541;-79
2021/11/17 11:47:13;;;;;;;24.73;12.35;;;;;;;;;;5052908;28;20542;-80
2021/11/17 11:49:43;;;;;;;23.55;13.18;;;;;;;;;;5052528;28;20174;-78
2021/11/17 11:52:09;;;;;;;21.85;12.02;;;;;;;;;;5052924;28;20646;-81
2021/11/17 11:54:55;;;;;;;22.33;11.85;;;;;;;;;;5051483;28;20216;-79
2021/11/17 11:57:30;;;;;;;25.95;13.02;;;;;;;;;;5052785;28;20196;-77
2021/11/17 12:00:00;;;;;;;20.20;12.25;;;;;;;;;;5052681;28;20216;-82
2021/11/17 12:02:28;;;;;;;19.33;11.32;;;;;;;;;;5052913;28;20173;-78
2021/11/17 12:04:57;;;;;;;19.40;12.57;;;;;;;;;;5053115;28;20231;-78
2021/11/17 12:07:29;;;;;;;20.20;11.95;;;;;;;;;;5052831;28;20177;-80
2021/11/17 12:10:05;;;;;;;21.58;11.55;;;;;;;;;;5052495;28;20279;-81
2021/11/17 12:12:33;;;;;;;18.27;9.82;;;;;;;;;;5052626;28;20264;-80
2021/11/17 12:15:17;;;;;;;17.55;12.88;;;;;;;;;;5052707;28;20180;-78
2021/11/17 12:17:44;;;;;;;20.50;10.95;;;;;;;;;;5052304;28;20221;-80
2021/11/17 12:20:25;;;;;;;21.63;11.82;;;;;;;;;;5052285;28;20282;-81
2021/11/17 12:22:52;;;;;;;22.08;12.38;;;;;;;;;;5052818;28;20248;-80
2021/11/17 12:25:24;;;;;;;23.95;12.77;;;;;;;;;;5054738;28;20211;-78
2021/11/17 12:27:55;;;;;;;23.33;14.10;;;;;;;;;;5056129;28;20638;-82
2021/11/17 12:30:30;;;;;;;23.95;13.50;;;;;;;;;;5055732;28;20193;-78
2021/11/17 12:32:59;;;;;;;23.00;12.13;;;;;;;;;;5056306;28;20169;-80
2021/11/17 12:35:34;;;;;;;23.42;11.82;;;;;;;;;;5055930;28;20177;-82
2021/11/17 12:38:02;;;;;;;23.27;12.98;;;;;;;;;;5055842;28;20298;-79
2021/11/17 12:40:48;;;;;;;24.90;12.93;;;;;;;;;;5055467;28;20302;-80
2021/11/17 12:43:32;;;;;;;24.52;14.27;;;;;;;;;;5055997;28;20184;-81
2021/11/17 12:46:20;;;;;;;25.95;12.38;;;;;;;;;;5054608;28;20170;-81
2021/11/17 12:48:50;;;;;;;21.85;13.13;;;;;;;;;;5055901;28;20545;-80
2021/11/17 12:51:21;;;;;;;25.88;12.52;;;;;;;;;;5055328;28;20211;-82
2021/11/17 12:54:13;;;;;;;27.77;14.77;;;;;;;;;;5055682;28;20182;-80
2021/11/17 12:56:42;;;;;;;25.27;14.15;;;;;;;;;;5054532;28;20197;-81
2021/11/17 12:59:18;;;;;;;25.58;12.70;;;;;;;;;;5055845;28;20626;-80
2021/11/17 13:01:46;;;;;;;28.95;15.15;;;;;;;;;;5055747;28;20199;-81
2021/11/17 13:04:12;;;;;;;24.10;13.38;;;;;;;;;;5057361;28;20239;-81
2021/11/17 13:06:40;;;;;;;23.23;13.80;;;;;;;;;;5056562;28;20177;-80
2021/11/17 13:09:06;;;;;;;26.15;14.45;;;;;;;;;;5055715;28;20415;-82
2021/11/17 13:11:33;;;;;;;26.30;14.63;;;;;;;;;;5055111;28;20715;-80
2021/11/17 13:13:59;;;;;;;24.88;13.23;;;;;;;;;;5055112;28;20816;-82
2021/11/17 13:16:28;;;;;;;24.95;13.70;;;;;;;;;;5054879;28;20200;-82
2021/11/17 13:19:01;;;;;;;26.60;14.15;;;;;;;;;;5055033;28;20685;-79
2021/11/17 13:21:35;;;;;;;29.10;14.43;;;;;;;;;;5054668;28;20243;-79
2021/11/17 13:24:13;;;;;;;23.85;12.75;;;;;;;;;;5054876;28;20622;-82
2021/11/17 13:26:49;;;;;;;28.92;14.57;;;;;;;;;;5054851;28;20170;-81
2021/11/17 13:29:18;;;;;;;26.00;13.95;;;;;;;;;;5054743;28;20173;-80
2021/11/17 13:31:44;;;;;;;25.52;14.60;;;;;;;;;;5054733;28;20558;-81
2021/11/17 13:34:15;;;;;;;28.38;14.80;;;;;;;;;;5053381;28;20212;-81
2021/11/17 13:36:47;;;;;;;32.83;16.88;;;;;;;;;;5054776;28;20170;-82
2021/11/17 13:39:14;;;;;;;26.77;14.63;;;;;;;;;;5054364;28;20174;-79
2021/11/17 13:41:42;;;;;;;27.73;14.45;;;;;;;;;;5054595;28;20197;-82
2021/11/17 13:44:09;;;;;;;27.95;16.23;;;;;;;;;;5054500;28;20196;-80
2021/11/17 13:46:35;;;;;;;38.63;17.23;;;;;;;;;;5054509;28;20184;-82
2021/11/17 13:49:03;;;;;;;31.83;15.73;;;;;;;;;;5054478;28;20205;-79
2021/11/17 13:51:29;;;;;;;27.08;16.02;;;;;;;;;;5054071;28;20193;-82
2021/11/17 13:53:56;;;;;;;29.48;15.05;;;;;;;;;;5054387;28;20252;-80
2021/11/17 13:56:24;;;;;;;32.28;17.33;;;;;;;;;;5054254;28;20723;-79
2021/11/17 13:58:51;;;;;;;33.20;16.50;;;;;;;;;;5054237;28;20208;-80
2021/11/17 14:01:17;;;;;;;29.90;17.83;;;;;;;;;;5054013;28;20196;-79
2021/11/17 14:03:43;;;;;;;32.30;15.98;;;;;;;;;;5054222;28;20222;-79
2021/11/17 14:06:11;;;;;;;36.10;19.92;;;;;;;;;;5054174;28;20172;-80
2021/11/17 14:08:38;;;;;;;36.67;19.80;;;;;;;;;;5054127;28;20181;-81
2021/11/17 14:11:04;;;;;;;33.80;17.83;;;;;;;;;;5053461;28;20201;-81
2021/11/17 14:13:30;;;;;;;33.95;18.33;;;;;;;;;;5054085;28;20533;-82
2021/11/17 14:15:57;;;;;;;40.53;20.90;;;;;;;;;;5054043;28;20169;-82
2021/11/17 14:18:23;;;;;;;32.35;18.25;;;;;;;;;;5053671;28;20278;-81
2021/11/17 14:20:49;;;;;;;36.13;19.67;;;;;;;;;;5053412;28;20186;-81
2021/11/17 14:23:16;;;;;;;34.28;20.13;;;;;;;;;;5053854;28;20169;-81
2021/11/17 14:25:43;;;;;;;39.67;19.95;;;;;;;;;;5052616;28;20178;-82
2021/11/17 14:28:17;;;;;;;31.63;18.23;;;;;;;;;;5052507;28;20581;-80
2021/11/17 14:30:45;;;;;;;41.05;19.73;;;;;;;;;;5053312;28;20254;-82
2021/11/17 14:33:14;;;;;;;39.38;21.30;;;;;;;;;;5053840;28;20186;-81
2021/11/17 14:35:41;;;;;;;36.33;18.70;;;;;;;;;;5052328;28;20181;-79
2021/11/17 14:38:10;;;;;;;33.75;18.05;;;;;;;;;;5053651;28;20291;-79
2021/11/17 14:40:36;;;;;;;37.67;19.33;;;;;;;;;;5052993;28;20197;-82
2021/11/17 14:43:03;;;;;;;37.97;20.80;;;;;;;;;;5053551;28;20174;-81
2021/11/17 14:45:30;;;;;;;34.47;20.23;;;;;;;;;;5053490;28;20179;-80
2021/11/17 14:47:59;;;;;;;37.55;20.55;;;;;;;;;;5053025;28;20592;-80
2021/11/17 14:50:26;;;;;;;32.35;19.35;;;;;;;;;;5053024;28;20209;-80
2021/11/17 14:52:52;;;;;;;48.90;20.95;;;;;;;;;;5053045;28;20201;-82
2021/11/17 14:55:19;;;;;;;39.75;19.55;;;;;;;;;;5053290;28;20174;-80
2021/11/17 14:57:46;;;;;;;43.70;22.23;;;;;;;;;;5053210;28;20220;-82
2021/11/17 15:00:16;;;;;;;39.13;21.15;;;;;;;;;;5052903;28;20181;-80
2021/11/17 15:02:42;;;;;;;35.95;21.60;;;;;;;;;;5051814;28;20549;-82
2021/11/17 15:05:09;;;;;;;38.10;21.67;;;;;;;;;;5053205;28;20176;-80
2021/11/17 15:07:35;;;;;;;39.00;24.55;;;;;;;;;;5053191;28;20658;-77
2021/11/17 15:10:01;;;;;;;39.25;22.92;;;;;;;;;;5052686;28;20268;-81
2021/11/17 15:12:31;;;;;;;32.42;21.23;;;;;;;;;;5051719;28;20641;-77
2021/11/17 15:14:57;;;;;;;41.85;21.60;;;;;;;;;;5053278;28;20169;-79
2021/11/17 15:17:23;;;;;;;37.40;22.17;;;;;;;;;;5052856;28;20209;-80
2021/11/17 15:19:49;;;;;;;36.13;21.70;;;;;;;;;;5052569;28;20868;-82
2021/11/17 15:22:15;;;;;;;40.60;22.65;;;;;;;;;;5053202;28;20185;-80
2021/11/17 15:24:41;;;;;;;34.65;20.95;;;;;;;;;;5051780;28;20653;-79
2021/11/17 15:27:13;;;;;;;45.65;23.15;;;;;;;;;;5052951;28;20249;-80
2021/11/17 15:29:40;;;;;;;40.60;22.00;;;;;;;;;;5052654;28;20177;-82
2021/11/17 15:32:07;;;;;;;39.05;20.60;;;;;;;;;;5053022;28;20177;-80
2021/11/17 15:34:33;;;;;;;41.22;23.20;;;;;;;;;;5052887;28;20188;-81
2021/11/17 15:36:59;;;;;;;38.38;22.88;;;;;;;;;;5052696;28;20201;-79
2021/11/17 15:39:25;;;;;;;41.08;23.40;;;;;;;;;;5052590;28;20174;-80
2021/11/17 15:41:51;;;;;;;39.90;23.52;;;;;;;;;;5051680;28;20231;-80
2021/11/17 15:44:17;;;;;;;47.38;25.52;;;;;;;;;;5052908;28;20511;-81
2021/11/17 15:46:54;;;;;;;40.20;23.55;;;;;;;;;;5052803;28;20181;-78
2021/11/17 15:49:20;;;;;;;39.17;22.40;;;;;;;;;;5051126;28;20620;-80
2021/11/17 15:51:48;;;;;;;45.92;23.73;;;;;;;;;;5052649;28;20566;-80
2021/11/17 15:54:14;;;;;;;42.70;24.48;;;;;;;;;;5052692;28;20169;-81
2021/11/17 15:56:40;;;;;;;41.63;23.85;;;;;;;;;;5052618;28;20227;-82
2021/11/17 15:59:07;;;;;;;56.30;27.50;;;;;;;;;;5051607;28;20182;-81
2021/11/17 16:01:33;;;;;;;48.28;25.65;;;;;;;;;;5055897;28;20188;-79
2021/11/17 16:03:59;;;;;;;43.07;25.53;;;;;;;;;;5056484;28;20239;-80
2021/11/17 16:06:28;;;;;;;51.63;23.80;;;;;;;;;;5056870;28;20413;-79
2021/11/17 16:08:54;;;;;;;57.80;26.75;;;;;;;;;;5056342;28;20179;-80
2021/11/17 16:11:20;;;;;;;46.25;25.10;;;;;;;;;;5056064;28;20247;-79
2021/11/17 16:13:47;;;;;;;45.53;26.17;;;;;;;;;;5055127;28;20185;-82
2021/11/17 16:16:13;;;;;;;49.55;27.10;;;;;;;;;;5056165;28;20477;-80
2021/11/17 16:18:39;;;;;;;54.35;27.88;;;;;;;;;;5056126;28;20221;-78
2021/11/17 16:21:07;;;;;;;47.20;25.88;;;;;;;;;;5056018;28;20201;-80
2021/11/17 16:26:05;;;;;;;46.50;26.30;;;;;;;;;;5056041;28;20548;-82
2021/11/17 16:28:41;;;;;;;52.95;27.45;;;;;;;;;;5055888;28;20173;-82
2021/11/17 16:31:08;;;;;;;46.88;26.40;;;;;;;;;;5054182;28;20197;-80
2021/11/17 16:33:36;;;;;;;51.72;26.73;;;;;;;;;;5055597;28;20173;-81
2021/11/17 16:36:03;;;;;;;59.75;30.42;;;;;;;;;;5054378;28;20552;-80
2021/11/17 16:38:29;;;;;;;61.15;28.00;;;;;;;;;;5055603;28;20205;-82
2021/11/17 16:40:55;;;;;;;46.30;26.50;;;;;;;;;;5055230;28;20200;-81
2021/11/17 16:43:22;;;;;;;64.70;30.33;;;;;;;;;;5054205;28;20187;-82
2021/11/17 16:45:49;;;;;;;55.67;28.25;;;;;;;;;;5055136;28;20177;-79
2021/11/17 16:48:15;;;;;;;55.22;26.90;;;;;;;;;;5055567;28;20259;-80
2021/11/17 16:50:42;;;;;;;51.92;30.08;;;;;;;;;;5053747;28;20203;-80
2021/11/17 16:53:10;;;;;;;48.13;28.55;;;;;;;;;;5055262;28;20201;-82
2021/11/17 16:55:37;;;;;;;42.33;25.10;;;;;;;;;;5055189;28;20187;-83
2021/11/17 16:58:03;;;;;;;47.58;27.75;;;;;;;;;;5055229;28;20201;-80
2021/11/17 17:00:34;;;;;;;47.40;25.25;;;;;;;;;;5054992;28;20194;-81
2021/11/17 17:03:00;;;;;;;45.47;25.73;;;;;;;;;;5054317;28;20722;-81
2021/11/17 17:05:26;;;;;;;57.47;28.83;;;;;;;;;;5055193;28;20196;-83
2021/11/17 17:07:52;;;;;;;58.03;32.80;;;;;;;;;;5055072;28;20180;-81
2021/11/17 17:10:21;;;;;;;50.90;31.05;;;;;;;;;;5054258;28;20201;-84
2021/11/17 17:12:47;;;;;;;53.28;28.70;;;;;;;;;;5053423;28;20652;-83
2021/11/17 17:15:14;;;;;;;55.17;29.75;;;;;;;;;;5055049;28;20215;-82